Time;durP1;ratioP1;P1;durP2;ratioP2;P2;SDS_P1;SDS_P2;PMS_P1;PMS_P2;Temp;Humidity;BMP_temperature;BMP_pressure;BME280_temperature;BME280_humidity;BME280_pressure;Samples;Min_cycle;Max_cycle;Signal;HPM_P1;HPM_P2
2022/05/10 00:01:14;;;;;;;6.30;5.40;;;;;;;20.99;60.01;100809.72;5033368;28;20192;-64
2022/05/10 00:03:39;;;;;;;6.83;6.07;;;;;;;20.99;59.90;100809.72;4999959;28;20165;-64
2022/05/10 00:06:05;;;;;;;7.20;5.90;;;;;;;21.00;59.82;100810.53;5033297;28;20779;-64
2022/05/10 00:08:30;;;;;;;6.87;5.57;;;;;;;20.99;59.66;100815.47;5015633;28;20255;-64
2022/05/10 00:10:56;;;;;;;7.37;5.37;;;;;;;20.99;59.93;100808.88;5033154;28;20203;-64
2022/05/10 00:13:25;;;;;;;8.37;5.10;;;;;;;20.98;60.06;100810.91;5033128;28;20565;-64
2022/05/10 00:15:51;;;;;;;5.80;5.17;;;;;;;20.97;59.74;100803.53;5033016;28;20474;-64
2022/05/10 00:18:17;;;;;;;6.37;5.47;;;;;;;20.98;60.02;100793.69;5033098;28;20839;-64
2022/05/10 00:20:42;;;;;;;8.43;5.60;;;;;;;20.97;59.61;100797.78;4998923;28;20192;-64
2022/05/10 00:23:08;;;;;;;7.30;5.80;;;;;;;20.98;59.56;100795.75;5015260;28;20243;-64
2022/05/10 00:25:34;;;;;;;7.27;6.03;;;;;;;20.97;59.49;100797.78;5015299;28;20230;-64
2022/05/10 00:28:00;;;;;;;7.50;5.80;;;;;;;20.96;59.80;100799.00;5032732;28;20199;-64
2022/05/10 00:30:25;;;;;;;8.73;6.17;;;;;;;20.96;59.93;100796.13;5031958;28;20243;-64
2022/05/10 00:32:51;;;;;;;8.60;6.37;;;;;;;20.96;59.90;100796.13;5032546;28;20431;-64
2022/05/10 00:35:22;;;;;;;8.13;6.13;;;;;;;20.96;59.49;100792.41;5014563;28;20204;-64
2022/05/10 00:37:48;;;;;;;6.63;6.00;;;;;;;20.95;59.88;100797.34;5030340;28;20216;-64
2022/05/10 00:40:17;;;;;;;7.57;6.43;;;;;;;20.96;59.79;100798.16;4998559;28;20415;-64
2022/05/10 00:43:25;;;;;;;6.63;5.73;;;;;;;20.95;59.72;100796.50;5032669;28;20424;-64
2022/05/10 00:45:59;;;;;;;8.50;6.13;;;;;;;20.94;59.65;100791.97;5001531;28;20462;-64
2022/05/10 00:48:34;;;;;;;7.33;6.00;;;;;;;20.94;59.67;100784.22;5031959;28;20905;-64
2022/05/10 00:51:06;;;;;;;7.10;6.20;;;;;;;20.94;59.44;100789.13;5014305;28;20418;-64
2022/05/10 00:53:45;;;;;;;6.30;5.43;;;;;;;20.93;59.86;100785.41;5015241;28;20403;-64
2022/05/10 00:56:34;;;;;;;7.80;6.10;;;;;;;20.94;59.59;100783.38;4999563;28;20443;-64
2022/05/10 00:59:04;;;;;;;9.77;6.80;;;;;;;20.93;59.56;100779.66;5002309;28;20439;-64
2022/05/10 01:01:33;;;;;;;7.87;6.10;;;;;;;20.92;59.66;100783.75;5015339;28;20508;-64
2022/05/10 01:04:39;;;;;;;6.50;5.40;;;;;;;20.93;59.69;100779.66;5015014;28;20957;-64
2022/05/10 01:07:11;;;;;;;8.30;6.37;;;;;;;20.93;59.86;100771.03;5014261;28;20412;-64
2022/05/10 01:09:48;;;;;;;6.90;6.20;;;;;;;20.93;59.47;100765.31;4998001;28;20512;-64
2022/05/10 01:12:45;;;;;;;7.00;5.70;;;;;;;20.93;59.55;100765.31;5015788;28;20774;-64
2022/05/10 01:15:14;;;;;;;8.27;6.67;;;;;;;20.93;59.43;100765.31;5009662;28;20932;-64
2022/05/10 01:17:39;;;;;;;8.40;5.90;;;;;;;20.93;59.49;100758.75;5031605;28;20524;-64
2022/05/10 01:20:06;;;;;;;6.80;5.10;;;;;;;20.94;59.70;100760.41;5031187;28;20435;-64
2022/05/10 01:22:59;;;;;;;6.90;6.00;;;;;;;20.92;59.61;100760.78;5031867;28;20184;-64
2022/05/10 01:25:40;;;;;;;8.20;6.07;;;;;;;20.93;59.46;100758.75;5031902;28;20418;-64
2022/05/10 01:28:26;;;;;;;6.30;5.70;;;;;;;20.92;59.45;100757.91;5031672;28;20421;-64
2022/05/10 01:30:52;;;;;;;8.33;6.37;;;;;;;20.92;59.51;100752.19;5010733;28;21022;-64
2022/05/10 01:33:45;;;;;;;5.97;5.27;;;;;;;20.92;59.36;100749.31;5011004;28;20475;-64
2022/05/10 01:36:31;;;;;;;14.83;6.00;;;;;;;20.91;59.34;100750.53;5006947;28;20711;-64
2022/05/10 01:39:02;;;;;;;8.60;6.57;;;;;;;20.92;59.30;100757.91;5010677;28;20408;-64
2022/05/10 01:41:47;;;;;;;6.77;6.07;;;;;;;20.92;59.48;100762.84;5010655;28;20802;-64
2022/05/10 01:44:26;;;;;;;8.80;6.30;;;;;;;20.91;59.20;100753.41;5010165;28;20474;-64
2022/05/10 01:46:58;;;;;;;8.20;6.30;;;;;;;20.91;59.51;100758.28;5010354;28;20420;-64
2022/05/10 01:49:23;;;;;;;9.63;6.30;;;;;;;20.91;59.35;100749.69;4993654;28;20999;-64
2022/05/10 01:52:24;;;;;;;7.97;5.70;;;;;;;20.90;59.33;100746.00;5010578;28;20419;-64
2022/05/10 01:55:00;;;;;;;6.90;6.20;;;;;;;20.90;59.22;100746.00;5006799;28;20211;-64
2022/05/10 01:57:25;;;;;;;7.00;6.10;;;;;;;20.90;59.52;100743.13;4990381;28;20441;-64
2022/05/10 01:59:59;;;;;;;6.43;5.70;;;;;;;20.89;59.18;100738.63;5007341;28;20479;-64
2022/05/10 02:02:25;;;;;;;7.63;6.13;;;;;;;20.90;59.45;100746.00;4990601;28;20220;-64
2022/05/10 02:04:52;;;;;;;6.67;5.97;;;;;;;20.90;59.26;100740.25;4990716;28;20427;-64
2022/05/10 02:07:19;;;;;;;7.20;6.50;;;;;;;20.91;59.34;100746.81;4990735;28;20559;-64
2022/05/10 02:09:57;;;;;;;8.20;6.33;;;;;;;20.88;58.81;100748.38;4990526;28;20515;-64
2022/05/10 02:12:29;;;;;;;8.17;6.00;;;;;;;20.89;59.33;100747.22;4991753;28;20420;-64
2022/05/10 02:15:03;;;;;;;12.10;5.93;;;;;;;20.87;59.14;100749.59;4990519;28;20452;-64
2022/05/10 02:17:42;;;;;;;7.73;5.50;;;;;;;20.88;59.00;100741.84;4993847;28;20811;-64
2022/05/10 02:20:16;;;;;;;7.87;6.10;;;;;;;20.87;59.25;100746.72;5011242;28;20935;-64
2022/05/10 02:22:54;;;;;;;6.30;5.60;;;;;;;20.87;59.13;100745.94;5009907;28;20561;-64
2022/05/10 02:25:22;;;;;;;6.60;5.63;;;;;;;20.85;59.12;100737.69;5011007;28;20474;-64
2022/05/10 02:28:03;;;;;;;7.43;5.97;;;;;;;20.85;59.19;100749.19;5009354;28;20424;-64
2022/05/10 02:30:29;;;;;;;9.57;6.23;;;;;;;20.85;58.84;100739.72;4993617;28;20482;-64
2022/05/10 02:33:08;;;;;;;7.33;5.40;;;;;;;20.85;58.77;100726.22;5009602;28;20427;-64
2022/05/10 02:35:49;;;;;;;8.50;6.03;;;;;;;20.86;58.90;100732.75;5010240;28;20424;-64
2022/05/10 02:38:20;;;;;;;7.30;5.47;;;;;;;20.85;59.17;100734.81;5010729;28;20493;-64
2022/05/10 02:40:45;;;;;;;6.30;5.47;;;;;;;20.85;59.00;100726.22;5011127;28;20527;-64
2022/05/10 02:43:12;;;;;;;7.10;6.07;;;;;;;20.84;58.99;100727.44;5009490;28;20431;-64
2022/05/10 02:45:37;;;;;;;7.17;5.50;;;;;;;20.85;58.89;100729.09;5009487;28;20633;-64
2022/05/10 02:48:03;;;;;;;6.97;6.27;;;;;;;20.84;58.76;100717.97;5010568;28;20432;-64
2022/05/10 02:50:31;;;;;;;8.73;6.23;;;;;;;20.84;58.72;100729.47;5010843;28;20189;-64
2022/05/10 02:52:56;;;;;;;8.17;6.27;;;;;;;20.83;58.35;100722.06;5009489;28;20256;-64
2022/05/10 02:55:48;;;;;;;8.57;5.70;;;;;;;20.81;58.75;100713.84;5011118;28;20931;-64
2022/05/10 02:58:36;;;;;;;7.53;6.77;;;;;;;20.83;58.51;100724.94;5009948;28;20542;-64
2022/05/10 03:01:10;;;;;;;6.50;5.30;;;;;;;20.81;58.72;100733.94;5014112;28;20420;-64
2022/05/10 03:03:36;;;;;;;7.33;5.60;;;;;;;20.81;58.58;100728.19;5014862;28;20443;-64
2022/05/10 03:06:01;;;;;;;6.90;5.80;;;;;;;20.81;58.59;100735.97;5014687;28;20530;-64
2022/05/10 03:08:27;;;;;;;6.70;6.00;;;;;;;20.82;58.47;100732.72;5013492;28;20185;-64
2022/05/10 03:10:52;;;;;;;7.00;5.60;;;;;;;20.81;58.79;100733.94;5013644;28;20177;-64
2022/05/10 03:13:19;;;;;;;6.57;5.50;;;;;;;20.81;58.84;100725.31;5013488;28;20184;-64
2022/05/10 03:15:44;;;;;;;6.20;5.43;;;;;;;20.81;58.86;100728.19;5014908;28;20185;-64
2022/05/10 03:18:10;;;;;;;7.73;5.60;;;;;;;20.80;58.70;100726.53;5014102;28;20419;-64
2022/05/10 03:20:35;;;;;;;7.30;6.20;;;;;;;20.80;58.70;100732.28;5012500;28;20196;-64
2022/05/10 03:23:01;;;;;;;8.90;6.50;;;;;;;20.81;58.59;100727.34;5014414;28;20185;-64
2022/05/10 03:25:31;;;;;;;8.37;5.80;;;;;;;20.80;58.30;100734.31;5013088;28;20173;-64
2022/05/10 03:27:59;;;;;;;5.87;5.27;;;;;;;20.80;58.66;100717.09;5013285;28;20169;-64
2022/05/10 03:30:25;;;;;;;6.30;5.43;;;;;;;20.80;58.65;100729.41;5026814;28;20470;-64
2022/05/10 03:32:52;;;;;;;10.40;6.30;;;;;;;20.79;58.57;100730.63;5034198;28;20865;-64
2022/05/10 03:35:18;;;;;;;10.87;5.77;;;;;;;20.80;58.36;100722.84;5033823;28;20422;-64
2022/05/10 03:37:43;;;;;;;7.77;6.03;;;;;;;20.79;58.26;100729.78;5033942;28;20459;-64
2022/05/10 03:40:09;;;;;;;7.30;6.10;;;;;;;20.79;58.18;100730.63;5033550;28;20172;-64
2022/05/10 03:42:44;;;;;;;8.07;5.80;;;;;;;20.78;58.14;100728.94;5033746;28;20542;-64
2022/05/10 03:45:10;;;;;;;8.07;5.90;;;;;;;20.78;58.24;100726.09;5033866;28;20464;-64
2022/05/10 03:47:39;;;;;;;6.83;6.13;;;;;;;20.79;58.12;100724.91;5033286;28;20403;-64
2022/05/10 03:50:05;;;;;;;6.23;5.63;;;;;;;20.78;58.50;100723.22;5032362;28;20832;-64
2022/05/10 03:52:31;;;;;;;7.80;6.53;;;;;;;20.78;57.85;100734.69;5013760;28;20430;-64
2022/05/10 03:54:56;;;;;;;7.27;6.13;;;;;;;20.78;58.52;100728.16;5031919;28;20918;-64
2022/05/10 03:57:22;;;;;;;8.33;7.10;;;;;;;20.78;58.18;100719.53;5032234;28;20197;-64
2022/05/10 03:59:47;;;;;;;6.53;5.60;;;;;;;20.79;58.47;100729.78;5032622;28;20191;-64
2022/05/10 04:02:13;;;;;;;7.20;6.43;;;;;;;20.77;58.50;100721.56;5032053;28;20175;-64
2022/05/10 04:04:38;;;;;;;6.43;5.83;;;;;;;20.77;58.24;100723.63;5015027;28;20185;-64
2022/05/10 04:07:04;;;;;;;7.43;4.97;;;;;;;20.78;58.19;100728.16;5015721;28;20820;-64
2022/05/10 04:09:29;;;;;;;7.93;6.77;;;;;;;20.76;57.93;100722.78;5033352;28;20512;-64
2022/05/10 04:11:55;;;;;;;6.70;5.80;;;;;;;20.76;58.50;100725.66;5032122;28;20195;-64
2022/05/10 04:14:20;;;;;;;7.30;5.77;;;;;;;20.76;58.00;100724.81;5032195;28;20183;-64
2022/05/10 04:16:46;;;;;;;9.20;6.90;;;;;;;20.74;57.94;100728.09;5032879;28;20192;-64
2022/05/10 04:19:11;;;;;;;7.07;5.60;;;;;;;20.73;58.13;100717.81;5033018;28;20578;-64
2022/05/10 04:21:37;;;;;;;7.87;6.30;;;;;;;20.73;57.86;100726.41;5033231;28;20195;-64
2022/05/10 04:24:02;;;;;;;7.07;6.37;;;;;;;20.73;58.37;100723.53;5032871;28;20226;-64
2022/05/10 04:26:28;;;;;;;9.63;5.80;;;;;;;20.73;58.43;100726.41;5032760;28;20215;-64
2022/05/10 04:28:54;;;;;;;6.60;5.27;;;;;;;20.74;57.88;100733.00;5032838;28;20394;-64
2022/05/10 04:31:20;;;;;;;10.73;5.83;;;;;;;20.75;57.80;100734.66;5032296;28;20211;-64
2022/05/10 04:33:46;;;;;;;7.93;5.93;;;;;;;20.74;57.77;100733.84;5031321;28;20455;-64
2022/05/10 04:36:12;;;;;;;6.47;5.73;;;;;;;20.74;57.61;100745.31;4998588;28;20992;-64
2022/05/10 04:38:37;;;;;;;6.00;5.40;;;;;;;20.74;58.00;100739.56;5032345;28;20222;-64
2022/05/10 04:43:47;;;;;;;6.83;6.10;;;;;;;20.74;57.75;100750.22;5032918;28;20195;-64
2022/05/10 04:46:12;;;;;;;7.20;6.50;;;;;;;20.73;57.82;100749.38;5032432;28;20506;-64
2022/05/10 04:48:38;;;;;;;7.33;6.53;;;;;;;20.72;57.91;100755.53;5032821;28;20181;-64
2022/05/10 04:51:03;;;;;;;7.30;6.17;;;;;;;20.73;57.91;100763.72;5032184;28;20527;-64
2022/05/10 04:53:29;;;;;;;7.00;5.80;;;;;;;20.74;57.98;100764.56;5032191;28;20176;-64
2022/05/10 04:55:54;;;;;;;6.90;6.00;;;;;;;20.74;57.98;100765.41;5032424;28;20650;-64
2022/05/10 04:58:20;;;;;;;7.87;6.40;;;;;;;20.74;57.77;100765.41;5032564;28;20184;-64
2022/05/10 05:00:45;;;;;;;7.97;6.50;;;;;;;20.76;57.65;100768.69;5032330;28;20175;-64
2022/05/10 05:03:10;;;;;;;7.87;6.10;;;;;;;20.76;57.66;100777.31;5032639;28;20616;-64
2022/05/10 05:05:36;;;;;;;7.20;6.17;;;;;;;20.77;57.67;100775.28;5014532;28;20179;-64
2022/05/10 05:08:02;;;;;;;7.40;5.97;;;;;;;20.76;57.44;100774.44;5032443;28;20176;-64
2022/05/10 05:10:28;;;;;;;8.57;6.60;;;;;;;20.77;57.41;100772.41;5031127;28;20180;-64
2022/05/10 05:12:53;;;;;;;8.00;6.33;;;;;;;20.76;57.40;100774.44;5025948;28;20189;-64
2022/05/10 05:15:19;;;;;;;7.30;6.60;;;;;;;20.77;57.41;100781.81;5012377;28;20431;-64
2022/05/10 05:17:44;;;;;;;6.93;5.70;;;;;;;20.77;57.65;100778.97;5025432;28;20251;-63
2022/05/10 05:20:10;;;;;;;6.83;6.03;;;;;;;20.77;57.67;100778.97;5032214;28;20181;-63
2022/05/10 05:22:36;;;;;;;8.30;6.70;;;;;;;20.78;57.56;100782.66;5031667;28;20176;-63
2022/05/10 05:25:02;;;;;;;7.33;6.40;;;;;;;20.77;58.11;100783.88;5014025;28;20418;-64
2022/05/10 05:27:28;;;;;;;7.23;6.53;;;;;;;20.77;57.92;100778.97;5032105;28;20569;-64
2022/05/10 05:29:53;;;;;;;8.77;6.97;;;;;;;20.77;57.66;100776.09;5031510;28;20286;-64
2022/05/10 05:32:21;;;;;;;7.57;5.80;;;;;;;20.77;57.71;100778.16;5032037;28;20520;-64
2022/05/10 05:34:46;;;;;;;7.70;6.37;;;;;;;20.76;57.42;100785.91;5031721;28;20173;-64
2022/05/10 05:39:55;;;;;;;8.83;6.63;;;;;;;20.75;57.45;100783.44;5031451;28;20247;-64
2022/05/10 05:42:21;;;;;;;8.00;6.70;;;;;;;20.74;58.23;100773.16;5031365;28;20790;-64
2022/05/10 05:44:46;;;;;;;11.33;7.20;;;;;;;20.73;58.09;100772.31;5031883;28;20187;-64
2022/05/10 05:47:12;;;;;;;11.73;7.27;;;;;;;20.73;58.43;100783.00;5031697;28;20177;-64
2022/05/10 05:49:38;;;;;;;7.40;6.30;;;;;;;20.73;58.19;100783.81;5031654;28;20181;-64
2022/05/10 05:52:04;;;;;;;9.33;6.33;;;;;;;20.74;58.33;100787.50;5031383;28;20180;-64
2022/05/10 05:54:31;;;;;;;10.37;7.03;;;;;;;20.75;58.37;100787.13;5013974;28;20176;-64
2022/05/10 05:57:01;;;;;;;8.53;6.70;;;;;;;20.74;58.34;100788.34;5031111;28;20262;-63
2022/05/10 05:59:27;;;;;;;8.23;6.90;;;;;;;20.74;58.47;100791.22;5031817;28;20532;-63
2022/05/10 06:01:53;;;;;;;10.10;7.10;;;;;;;20.75;58.09;100790.00;5029701;28;20836;-64
2022/05/10 06:04:21;;;;;;;7.33;6.63;;;;;;;20.74;57.99;100788.34;5029502;28;20427;-64
2022/05/10 06:06:46;;;;;;;7.97;6.77;;;;;;;20.75;57.97;100780.56;5011785;28;20267;-64
2022/05/10 06:09:12;;;;;;;9.60;7.20;;;;;;;20.73;58.46;100783.81;5029397;28;20469;-63
2022/05/10 06:11:38;;;;;;;7.83;6.43;;;;;;;20.75;58.49;100786.28;5029146;28;20314;-63
2022/05/10 06:14:04;;;;;;;8.60;6.93;;;;;;;20.75;58.46;100784.25;5030342;28;20632;-64
2022/05/10 06:16:29;;;;;;;8.27;6.10;;;;;;;20.75;58.55;100781.41;5030116;28;20520;-63
2022/05/10 06:18:54;;;;;;;7.80;6.83;;;;;;;20.76;57.96;100788.78;5031184;28;20188;-63
2022/05/10 06:21:20;;;;;;;10.37;7.17;;;;;;;20.74;58.45;100779.75;5030701;28;20180;-63
2022/05/10 06:23:45;;;;;;;9.50;8.00;;;;;;;20.74;58.50;100779.75;5031046;28;20184;-64
2022/05/10 06:26:11;;;;;;;8.77;7.67;;;;;;;20.74;58.36;100785.47;5031091;28;20223;-64
2022/05/10 06:28:37;;;;;;;7.43;6.20;;;;;;;20.75;58.18;100795.75;5030774;28;20188;-64
2022/05/10 06:31:05;;;;;;;9.80;7.67;;;;;;;20.75;58.45;100792.03;5029996;28;20311;-64
2022/05/10 06:33:31;;;;;;;8.90;7.20;;;;;;;20.74;58.36;100784.66;5030236;28;20790;-63
2022/05/10 06:35:56;;;;;;;9.10;7.07;;;;;;;20.73;58.57;100792.41;5029434;28;20423;-63
2022/05/10 06:38:27;;;;;;;10.53;8.37;;;;;;;20.72;58.44;100793.63;5030961;28;20187;-63
2022/05/10 06:40:53;;;;;;;7.57;6.70;;;;;;;20.73;58.54;100788.72;5030823;28;20275;-63
2022/05/10 06:43:19;;;;;;;7.47;6.63;;;;;;;20.74;58.62;100784.66;5030783;28;20419;-63
2022/05/10 06:45:45;;;;;;;9.60;7.40;;;;;;;20.74;58.56;100787.50;5031031;28;21029;-63
2022/05/10 06:48:10;;;;;;;8.23;7.10;;;;;;;20.74;58.26;100787.50;5030318;28;20231;-63
2022/05/10 06:50:36;;;;;;;8.90;7.00;;;;;;;20.74;58.64;100785.47;5030114;28;20176;-64
2022/05/10 06:53:01;;;;;;;8.60;7.27;;;;;;;20.72;58.40;100779.28;5030809;28;20233;-64
2022/05/10 06:55:31;;;;;;;9.73;8.00;;;;;;;20.74;58.71;100788.34;5030873;28;20199;-64
2022/05/10 06:57:56;;;;;;;8.27;7.03;;;;;;;20.75;58.70;100786.28;5030564;28;20188;-64
2022/05/10 07:00:22;;;;;;;11.00;7.70;;;;;;;20.75;58.51;100786.28;5012828;28;20801;-64
2022/05/10 07:02:47;;;;;;;8.10;7.30;;;;;;;20.74;58.51;100782.63;5012628;28;20207;-64
2022/05/10 07:05:13;;;;;;;9.77;7.83;;;;;;;20.73;58.84;100789.53;5013020;28;20535;-63
2022/05/10 07:07:39;;;;;;;10.10;7.73;;;;;;;20.74;58.91;100784.66;5030498;28;20179;-63
2022/05/10 07:10:08;;;;;;;8.43;7.10;;;;;;;20.73;58.75;100780.13;5030652;28;20913;-63
2022/05/10 07:12:37;;;;;;;9.97;7.53;;;;;;;20.72;58.81;100778.47;5030291;28;20188;-63
2022/05/10 07:15:03;;;;;;;8.67;7.20;;;;;;;20.71;58.67;100779.66;5030756;28;20458;-63
2022/05/10 07:17:29;;;;;;;8.70;7.80;;;;;;;20.71;59.26;100783.38;5030156;28;20542;-63
2022/05/10 07:19:54;;;;;;;11.47;8.17;;;;;;;20.71;59.07;100780.50;5030098;28;20435;-63
2022/05/10 07:22:20;;;;;;;10.03;7.90;;;;;;;20.72;58.68;100785.03;5029155;28;20180;-64
2022/05/10 07:24:45;;;;;;;8.40;7.50;;;;;;;20.73;59.02;100783.81;5029485;28;20184;-63
2022/05/10 07:27:10;;;;;;;9.77;8.30;;;;;;;20.72;58.91;100776.41;5030298;28;20574;-63
2022/05/10 07:29:36;;;;;;;11.50;7.90;;;;;;;20.73;58.67;100778.06;5030309;28;20232;-63
2022/05/10 07:32:01;;;;;;;8.03;7.20;;;;;;;20.73;59.03;100775.19;5030098;28;20173;-63
2022/05/10 07:34:27;;;;;;;9.73;8.20;;;;;;;20.72;59.14;100776.41;5030429;28;20268;-63
2022/05/10 07:36:52;;;;;;;9.40;8.00;;;;;;;20.71;59.02;100774.75;5029722;28;20287;-63
2022/05/10 07:39:18;;;;;;;9.20;7.97;;;;;;;20.71;58.73;100771.91;5030472;28;20181;-63
2022/05/10 07:41:43;;;;;;;10.43;8.43;;;;;;;20.72;59.09;100767.00;5012641;28;20178;-63
2022/05/10 07:44:09;;;;;;;10.70;8.03;;;;;;;20.71;59.05;100769.03;5030010;28;20184;-63
2022/05/10 07:46:35;;;;;;;9.93;7.43;;;;;;;20.71;59.25;100769.03;5031532;28;20176;-63
2022/05/10 07:49:00;;;;;;;9.67;7.70;;;;;;;20.72;58.88;100770.69;5032534;28;20177;-63
2022/05/10 07:51:25;;;;;;;9.83;8.50;;;;;;;20.73;59.30;100777.25;5032359;28;20184;-63
2022/05/10 07:53:51;;;;;;;10.77;8.93;;;;;;;20.72;58.94;100767.81;5032582;28;20176;-63
2022/05/10 07:56:16;;;;;;;11.43;8.07;;;;;;;20.73;58.96;100768.66;5031951;28;20196;-63
2022/05/10 07:58:42;;;;;;;10.33;7.83;;;;;;;20.74;58.69;100764.56;5032855;28;20271;-63
2022/05/10 08:01:07;;;;;;;9.97;8.70;;;;;;;20.74;59.22;100759.66;5033448;28;20183;-63
2022/05/10 08:03:33;;;;;;;10.87;8.10;;;;;;;20.74;58.93;100765.41;5033352;28;20180;-63
2022/05/10 08:06:01;;;;;;;9.00;8.10;;;;;;;20.75;58.80;100767.03;5033102;28;20172;-63
2022/05/10 08:08:28;;;;;;;8.50;7.60;;;;;;;20.75;59.11;100767.03;5032131;28;20868;-63
2022/05/10 08:10:53;;;;;;;11.20;8.83;;;;;;;20.76;59.14;100765.00;5031866;28;20427;-63
2022/05/10 08:13:25;;;;;;;9.60;8.43;;;;;;;20.76;59.33;100760.09;5030437;28;20891;-63
2022/05/10 08:15:51;;;;;;;9.23;7.73;;;;;;;20.75;59.04;100769.91;5030543;28;20314;-63
2022/05/10 08:18:17;;;;;;;12.93;9.10;;;;;;;20.76;59.38;100771.56;5031824;28;20463;-63
2022/05/10 08:20:42;;;;;;;9.60;8.10;;;;;;;20.75;59.12;100764.19;5014062;28;20663;-63
2022/05/10 08:23:09;;;;;;;10.57;9.17;;;;;;;20.77;59.71;100767.47;5015409;28;20462;-63
2022/05/10 08:25:35;;;;;;;11.97;9.17;;;;;;;20.77;59.70;100758.88;5032416;28;20230;-63
2022/05/10 08:28:00;;;;;;;10.63;9.40;;;;;;;20.78;59.56;100753.97;5013913;28;20422;-63
2022/05/10 08:30:26;;;;;;;8.93;8.03;;;;;;;20.79;59.56;100753.59;5032241;28;20278;-63
2022/05/10 08:32:51;;;;;;;11.03;8.40;;;;;;;20.79;59.38;100759.34;5033043;28;20267;-63
2022/05/10 08:35:17;;;;;;;9.40;8.40;;;;;;;20.79;59.73;100756.47;5031912;28;20251;-63
2022/05/10 08:37:43;;;;;;;9.90;8.67;;;;;;;20.79;59.63;100756.47;5032292;28;20230;-63
2022/05/10 08:40:31;;;;;;;9.53;8.17;;;;;;;20.80;59.35;100749.50;5032815;28;20176;-63
2022/05/10 08:42:59;;;;;;;9.00;7.80;;;;;;;20.81;59.38;100753.19;5031909;28;20231;-63
2022/05/10 08:45:24;;;;;;;9.97;8.90;;;;;;;20.82;59.66;100761.41;5014376;28;20526;-63
2022/05/10 08:47:49;;;;;;;11.13;8.03;;;;;;;20.83;60.02;100756.50;5014904;28;20502;-63
2022/05/10 08:50:15;;;;;;;9.50;8.17;;;;;;;20.82;59.73;100744.19;5031392;28;20185;-63
2022/05/10 08:52:43;;;;;;;9.73;8.73;;;;;;;20.82;59.47;100744.19;4997498;28;20636;-63
2022/05/10 08:55:09;;;;;;;10.10;8.10;;;;;;;20.84;59.80;100755.28;5015123;28;20172;-63
2022/05/10 08:58:12;;;;;;;10.53;9.40;;;;;;;20.84;59.48;100750.41;5013942;28;20877;-63
2022/05/10 09:00:54;;;;;;;11.77;8.97;;;;;;;20.88;59.75;100747.56;5017473;28;20166;-63
2022/05/10 09:03:27;;;;;;;9.30;8.20;;;;;;;20.87;59.62;100743.06;5014556;28;20518;-63
2022/05/10 09:05:52;;;;;;;12.23;8.63;;;;;;;20.89;59.56;100747.22;5014629;28;20906;-63
2022/05/10 09:08:30;;;;;;;9.43;8.43;;;;;;;20.87;59.75;100749.59;5014570;28;20419;-63
2022/05/10 09:11:00;;;;;;;10.27;8.90;;;;;;;20.88;59.97;100738.97;5031889;28;20180;-63
2022/05/10 09:13:26;;;;;;;10.40;8.37;;;;;;;20.87;59.87;100749.59;5029826;28;20419;-63
2022/05/10 09:15:58;;;;;;;10.13;8.80;;;;;;;20.87;59.96;100740.19;5029493;28;20824;-63
2022/05/10 09:18:27;;;;;;;9.70;8.70;;;;;;;20.90;59.98;100742.28;5012649;28;20204;-63
2022/05/10 09:20:59;;;;;;;11.97;8.80;;;;;;;20.90;59.40;100748.88;5031894;28;20921;-63
2022/05/10 09:23:29;;;;;;;10.67;8.50;;;;;;;20.90;59.72;100743.13;5031908;28;20438;-63
2022/05/10 09:25:57;;;;;;;12.03;8.87;;;;;;;20.88;59.63;100739.78;5014454;28;20431;-63
2022/05/10 09:28:33;;;;;;;10.80;9.07;;;;;;;20.89;59.40;100732.88;5013873;28;20778;-63
2022/05/10 09:36:55;;;;;;;9.20;8.20;;;;;;;20.93;59.16;100728.00;5030094;28;20462;-63
2022/05/10 09:39:28;;;;;;;9.90;8.90;;;;;;;20.95;59.67;100727.63;5012435;28;20419;-63
2022/05/10 09:41:54;;;;;;;9.53;8.53;;;;;;;20.96;59.10;100726.38;4992431;28;20256;-63
2022/05/10 09:44:27;;;;;;;17.03;9.70;;;;;;;20.96;59.17;100712.88;5027865;28;20424;-63
2022/05/10 09:47:09;;;;;;;10.27;9.00;;;;;;;20.98;59.38;100727.66;5014493;28;20169;-63
2022/05/10 09:49:37;;;;;;;9.17;8.20;;;;;;;20.99;59.31;100719.88;5012959;28;20442;-63
2022/05/10 09:52:03;;;;;;;9.63;8.60;;;;;;;21.00;59.41;100712.94;5012370;28;20419;-63
2022/05/10 09:54:37;;;;;;;9.10;8.20;;;;;;;20.98;59.27;100713.31;5029937;28;20518;-63
2022/05/10 09:57:03;;;;;;;10.60;7.90;;;;;;;21.00;59.21;100713.75;5029885;28;20443;-63
2022/05/10 09:59:39;;;;;;;10.97;8.93;;;;;;;20.98;59.31;100707.56;5029718;28;20423;-63
2022/05/10 10:02:05;;;;;;;11.07;7.93;;;;;;;21.01;59.33;100708.84;5029985;28;20164;-63
2022/05/10 10:04:32;;;;;;;10.00;8.40;;;;;;;21.00;59.52;100702.28;5030443;28;20419;-63
2022/05/10 10:07:17;;;;;;;8.37;7.23;;;;;;;21.02;60.08;100704.78;5013584;28;20176;-63
2022/05/10 10:09:45;;;;;;;14.73;7.47;;;;;;;21.02;59.58;100699.84;5030616;28;20419;-63
2022/05/10 10:12:32;;;;;;;10.63;8.43;;;;;;;21.04;60.23;100700.28;4997348;28;20415;-63
2022/05/10 10:14:57;;;;;;;10.00;7.87;;;;;;;21.04;59.63;100693.72;5030185;28;20415;-63
2022/05/10 10:17:29;;;;;;;10.77;8.03;;;;;;;21.03;59.63;100701.50;5012142;28;20837;-63
2022/05/10 10:20:20;;;;;;;9.87;7.90;;;;;;;21.03;59.63;100695.75;5013304;28;20188;-63
2022/05/10 10:22:53;;;;;;;9.20;8.20;;;;;;;21.06;58.88;100697.84;5031099;28;20424;-63
2022/05/10 10:25:28;;;;;;;11.13;7.70;;;;;;;21.07;58.82;100699.50;5013264;28;20427;-63
2022/05/10 10:28:15;;;;;;;9.57;7.80;;;;;;;21.08;58.95;100694.59;5031080;28;20803;-63
2022/05/10 10:30:47;;;;;;;9.20;7.27;;;;;;;21.08;58.90;100686.78;5009999;28;20575;-63
2022/05/10 10:33:19;;;;;;;8.20;7.00;;;;;;;21.08;58.74;100689.66;5010753;28;20420;-63
2022/05/10 10:35:49;;;;;;;10.00;7.80;;;;;;;21.09;58.91;100687.63;5011152;28;20423;-63
2022/05/10 10:38:43;;;;;;;10.90;7.23;;;;;;;21.11;58.33;100682.31;5010045;28;20470;-63
2022/05/10 10:41:10;;;;;;;8.57;7.10;;;;;;;21.11;58.31;100680.28;5009638;28;20427;-63
2022/05/10 10:44:11;;;;;;;8.40;7.50;;;;;;;21.11;58.41;100683.16;5009519;28;20420;-63
2022/05/10 10:49:47;;;;;;;9.83;7.43;;;;;;;21.08;58.47;100672.44;4949525;29;20409;-63
2022/05/10 10:52:13;;;;;;;8.50;7.47;;;;;;;21.06;58.54;100674.88;4950244;29;20422;-63
2022/05/10 10:54:39;;;;;;;9.60;7.60;;;;;;;21.07;58.48;100670.78;4968092;28;20487;-63
2022/05/10 10:57:14;;;;;;;8.93;7.10;;;;;;;21.10;58.78;100670.03;4989469;28;20198;-63
2022/05/10 10:59:59;;;;;;;9.33;7.50;;;;;;;21.11;58.91;100663.06;4988169;28;20216;-63
2022/05/10 11:02:45;;;;;;;10.00;7.90;;;;;;;21.12;58.97;100664.72;4989318;28;20435;-63
2022/05/10 11:05:34;;;;;;;7.97;7.03;;;;;;;21.12;59.21;100658.16;4989272;28;20432;-63
2022/05/10 11:08:34;;;;;;;8.03;7.20;;;;;;;21.11;59.11;100657.31;5009265;28;20539;-63
2022/05/10 11:11:07;;;;;;;12.03;8.00;;;;;;;21.15;58.66;100658.19;5022592;28;20446;-63
2022/05/10 11:13:55;;;;;;;8.57;7.67;;;;;;;21.14;58.98;100650.81;5011033;28;20504;-63
2022/05/10 11:16:52;;;;;;;8.87;7.03;;;;;;;21.13;58.84;100648.31;5009303;28;20510;-63
2022/05/10 11:19:49;;;;;;;9.60;7.50;;;;;;;21.12;58.98;100647.47;5010589;28;20408;-63
2022/05/10 11:22:37;;;;;;;8.20;7.10;;;;;;;21.11;58.80;100645.84;4970482;28;20507;-63
2022/05/10 11:25:22;;;;;;;9.33;7.13;;;;;;;21.12;58.13;100650.34;5014378;28;20423;-63
2022/05/10 11:28:04;;;;;;;8.10;6.40;;;;;;;21.12;57.85;100641.75;4999100;28;20408;-63
2022/05/10 11:31:03;;;;;;;6.07;5.30;;;;;;;21.12;58.53;100641.75;5027802;28;20489;-63
2022/05/10 11:34:11;;;;;;;7.93;6.77;;;;;;;21.12;58.64;100629.44;5034083;28;20784;-63
2022/05/10 11:36:48;;;;;;;9.63;7.97;;;;;;;21.17;58.46;100627.03;5034107;28;20484;-63
2022/05/10 11:39:32;;;;;;;10.10;7.00;;;;;;;21.18;58.05;100622.94;5033578;28;20402;-63
2022/05/10 11:42:03;;;;;;;10.00;6.33;;;;;;;21.20;58.13;100620.53;5034276;28;20427;-63
2022/05/10 11:44:48;;;;;;;8.40;6.90;;;;;;;21.18;58.24;100620.06;5015562;28;20418;-63
2022/05/10 11:47:17;;;;;;;9.40;7.50;;;;;;;21.22;57.49;100620.94;5033957;28;20540;-63
2022/05/10 11:50:10;;;;;;;9.00;7.43;;;;;;;21.25;57.78;100613.59;5033627;28;20427;-63
2022/05/10 11:52:43;;;;;;;10.07;7.50;;;;;;;21.27;57.37;100614.03;5033442;28;20427;-63
2022/05/10 11:55:46;;;;;;;7.70;6.60;;;;;;;21.26;57.52;100603.75;5015363;28;20449;-63